sensor_id;sensor_type;location;lat;lon;timestamp;P1;durP1;ratioP1;P2;durP2;ratioP2
8113;SDS011;4099;52.684;9.918;2022-08-19T00:02:23;10.47;;;8.40;;
8113;SDS011;4099;52.684;9.918;2022-08-19T00:07:25;8.87;;;7.57;;
8113;SDS011;4099;52.684;9.918;2022-08-19T00:12:28;9.20;;;8.23;;
8113;SDS011;4099;52.684;9.918;2022-08-19T00:17:30;8.33;;;7.53;;
8113;SDS011;4099;52.684;9.918;2022-08-19T00:22:31;8.13;;;7.33;;
8113;SDS011;4099;52.684;9.918;2022-08-19T00:27:34;8.97;;;7.73;;
8113;SDS011;4099;52.684;9.918;2022-08-19T00:32:38;10.07;;;8.33;;
8113;SDS011;4099;52.684;9.918;2022-08-19T00:37:40;8.73;;;7.87;;
8113;SDS011;4099;52.684;9.918;2022-08-19T00:42:44;9.50;;;8.07;;
8113;SDS011;4099;52.684;9.918;2022-08-19T00:47:46;10.27;;;8.20;;
8113;SDS011;4099;52.684;9.918;2022-08-19T00:52:48;8.37;;;7.57;;
8113;SDS011;4099;52.684;9.918;2022-08-19T00:57:55;9.83;;;8.80;;
8113;SDS011;4099;52.684;9.918;2022-08-19T01:03:00;12.07;;;8.13;;
8113;SDS011;4099;52.684;9.918;2022-08-19T01:08:03;9.73;;;8.70;;
8113;SDS011;4099;52.684;9.918;2022-08-19T01:13:08;10.27;;;8.50;;
8113;SDS011;4099;52.684;9.918;2022-08-19T01:18:11;9.00;;;8.20;;
8113;SDS011;4099;52.684;9.918;2022-08-19T01:23:17;10.40;;;8.60;;
8113;SDS011;4099;52.684;9.918;2022-08-19T01:28:19;10.07;;;8.23;;
8113;SDS011;4099;52.684;9.918;2022-08-19T01:33:22;10.40;;;9.37;;
8113;SDS011;4099;52.684;9.918;2022-08-19T01:38:26;10.10;;;9.10;;
8113;SDS011;4099;52.684;9.918;2022-08-19T01:43:31;9.30;;;8.43;;
8113;SDS011;4099;52.684;9.918;2022-08-19T01:48:35;8.27;;;7.27;;
8113;SDS011;4099;52.684;9.918;2022-08-19T01:53:40;9.83;;;8.73;;
8113;SDS011;4099;52.684;9.918;2022-08-19T01:58:43;10.63;;;8.67;;
8113;SDS011;4099;52.684;9.918;2022-08-19T02:03:49;7.93;;;7.23;;
8113;SDS011;4099;52.684;9.918;2022-08-19T02:08:53;8.10;;;7.40;;
8113;SDS011;4099;52.684;9.918;2022-08-19T02:13:55;8.50;;;7.53;;
8113;SDS011;4099;52.684;9.918;2022-08-19T02:18:57;9.60;;;8.70;;
8113;SDS011;4099;52.684;9.918;2022-08-19T02:24:01;10.73;;;7.90;;
8113;SDS011;4099;52.684;9.918;2022-08-19T02:29:04;10.40;;;9.33;;
8113;SDS011;4099;52.684;9.918;2022-08-19T02:34:05;8.70;;;7.90;;
8113;SDS011;4099;52.684;9.918;2022-08-19T02:39:09;9.53;;;8.60;;
8113;SDS011;4099;52.684;9.918;2022-08-19T02:44:10;10.70;;;9.53;;
8113;SDS011;4099;52.684;9.918;2022-08-19T02:49:13;8.67;;;7.77;;
8113;SDS011;4099;52.684;9.918;2022-08-19T02:54:17;10.10;;;9.10;;
8113;SDS011;4099;52.684;9.918;2022-08-19T02:59:19;10.70;;;9.53;;
8113;SDS011;4099;52.684;9.918;2022-08-19T03:04:21;11.23;;;9.97;;
8113;SDS011;4099;52.684;9.918;2022-08-19T03:09:25;9.80;;;8.80;;
8113;SDS011;4099;52.684;9.918;2022-08-19T03:14:29;10.33;;;8.93;;
8113;SDS011;4099;52.684;9.918;2022-08-19T03:19:31;9.60;;;8.63;;
8113;SDS011;4099;52.684;9.918;2022-08-19T03:24:34;12.07;;;9.77;;
8113;SDS011;4099;52.684;9.918;2022-08-19T03:29:37;13.30;;;10.80;;
8113;SDS011;4099;52.684;9.918;2022-08-19T03:34:39;13.47;;;10.90;;
8113;SDS011;4099;52.684;9.918;2022-08-19T03:39:42;11.17;;;9.83;;
8113;SDS011;4099;52.684;9.918;2022-08-19T03:44:44;12.23;;;11.03;;
8113;SDS011;4099;52.684;9.918;2022-08-19T03:49:45;12.60;;;11.30;;
8113;SDS011;4099;52.684;9.918;2022-08-19T03:54:48;12.67;;;10.90;;
8113;SDS011;4099;52.684;9.918;2022-08-19T03:59:50;12.57;;;11.37;;
8113;SDS011;4099;52.684;9.918;2022-08-19T04:04:53;12.17;;;10.77;;
8113;SDS011;4099;52.684;9.918;2022-08-19T04:09:56;13.43;;;10.20;;
8113;SDS011;4099;52.684;9.918;2022-08-19T04:14:59;12.50;;;10.47;;
8113;SDS011;4099;52.684;9.918;2022-08-19T04:20:01;11.47;;;10.00;;
8113;SDS011;4099;52.684;9.918;2022-08-19T04:25:04;11.53;;;10.13;;
8113;SDS011;4099;52.684;9.918;2022-08-19T04:30:07;10.17;;;8.90;;
8113;SDS011;4099;52.684;9.918;2022-08-19T04:35:09;11.17;;;9.73;;
8113;SDS011;4099;52.684;9.918;2022-08-19T04:40:12;11.60;;;9.70;;
8113;SDS011;4099;52.684;9.918;2022-08-19T04:45:31;9.77;;;8.77;;
8113;SDS011;4099;52.684;9.918;2022-08-19T04:50:34;10.17;;;9.17;;
8113;SDS011;4099;52.684;9.918;2022-08-19T04:55:39;10.97;;;9.67;;
8113;SDS011;4099;52.684;9.918;2022-08-19T05:00:42;9.77;;;8.77;;
8113;SDS011;4099;52.684;9.918;2022-08-19T05:05:44;9.33;;;8.27;;
8113;SDS011;4099;52.684;9.918;2022-08-19T05:10:50;9.23;;;8.17;;
8113;SDS011;4099;52.684;9.918;2022-08-19T05:15:53;9.47;;;8.50;;
8113;SDS011;4099;52.684;9.918;2022-08-19T05:20:56;10.50;;;7.93;;
8113;SDS011;4099;52.684;9.918;2022-08-19T05:26:17;10.43;;;8.50;;
8113;SDS011;4099;52.684;9.918;2022-08-19T05:31:19;8.50;;;7.53;;
8113;SDS011;4099;52.684;9.918;2022-08-19T05:36:21;8.73;;;7.40;;
8113;SDS011;4099;52.684;9.918;2022-08-19T05:41:24;7.20;;;6.60;;
8113;SDS011;4099;52.684;9.918;2022-08-19T05:46:29;8.07;;;7.17;;
8113;SDS011;4099;52.684;9.918;2022-08-19T05:51:31;7.73;;;7.00;;
8113;SDS011;4099;52.684;9.918;2022-08-19T05:56:35;6.97;;;6.23;;
8113;SDS011;4099;52.684;9.918;2022-08-19T06:01:39;7.27;;;6.57;;
8113;SDS011;4099;52.684;9.918;2022-08-19T06:06:42;6.77;;;6.17;;
8113;SDS011;4099;52.684;9.918;2022-08-19T06:11:46;8.10;;;5.90;;
8113;SDS011;4099;52.684;9.918;2022-08-19T06:16:53;6.93;;;6.10;;
8113;SDS011;4099;52.684;9.918;2022-08-19T06:21:55;6.80;;;6.07;;
8113;SDS011;4099;52.684;9.918;2022-08-19T06:26:59;6.57;;;5.97;;
8113;SDS011;4099;52.684;9.918;2022-08-19T06:32:02;7.27;;;6.40;;
8113;SDS011;4099;52.684;9.918;2022-08-19T06:37:05;6.90;;;6.30;;
8113;SDS011;4099;52.684;9.918;2022-08-19T06:42:08;6.90;;;6.20;;
8113;SDS011;4099;52.684;9.918;2022-08-19T06:47:13;7.10;;;6.27;;
8113;SDS011;4099;52.684;9.918;2022-08-19T06:52:17;5.83;;;5.27;;
8113;SDS011;4099;52.684;9.918;2022-08-19T06:57:21;5.40;;;4.90;;
8113;SDS011;4099;52.684;9.918;2022-08-19T07:02:23;5.30;;;4.80;;
8113;SDS011;4099;52.684;9.918;2022-08-19T07:07:26;5.00;;;4.47;;
8113;SDS011;4099;52.684;9.918;2022-08-19T07:12:30;4.67;;;4.27;;
8113;SDS011;4099;52.684;9.918;2022-08-19T07:17:34;4.50;;;4.17;;
8113;SDS011;4099;52.684;9.918;2022-08-19T07:22:37;4.73;;;4.30;;
8113;SDS011;4099;52.684;9.918;2022-08-19T07:27:40;4.50;;;4.10;;
8113;SDS011;4099;52.684;9.918;2022-08-19T07:32:42;6.27;;;4.00;;
8113;SDS011;4099;52.684;9.918;2022-08-19T07:37:44;4.67;;;4.10;;
8113;SDS011;4099;52.684;9.918;2022-08-19T07:42:47;5.13;;;4.40;;
8113;SDS011;4099;52.684;9.918;2022-08-19T07:47:49;5.97;;;4.57;;
8113;SDS011;4099;52.684;9.918;2022-08-19T07:52:50;4.70;;;4.30;;
8113;SDS011;4099;52.684;9.918;2022-08-19T07:57:54;5.63;;;4.97;;
8113;SDS011;4099;52.684;9.918;2022-08-19T08:02:55;4.77;;;4.37;;
8113;SDS011;4099;52.684;9.918;2022-08-19T08:07:57;5.33;;;4.63;;
8113;SDS011;4099;52.684;9.918;2022-08-19T08:13:20;5.13;;;4.57;;
8113;SDS011;4099;52.684;9.918;2022-08-19T08:18:22;5.27;;;4.77;;
8113;SDS011;4099;52.684;9.918;2022-08-19T08:23:24;5.63;;;5.03;;
8113;SDS011;4099;52.684;9.918;2022-08-19T08:28:27;5.37;;;4.87;;
8113;SDS011;4099;52.684;9.918;2022-08-19T08:33:29;6.13;;;5.60;;
8113;SDS011;4099;52.684;9.918;2022-08-19T08:38:32;5.90;;;5.40;;
8113;SDS011;4099;52.684;9.918;2022-08-19T08:43:37;5.90;;;5.40;;
8113;SDS011;4099;52.684;9.918;2022-08-19T08:48:44;5.60;;;5.10;;
8113;SDS011;4099;52.684;9.918;2022-08-19T08:53:51;5.40;;;4.90;;
8113;SDS011;4099;52.684;9.918;2022-08-19T08:58:56;5.60;;;5.10;;
8113;SDS011;4099;52.684;9.918;2022-08-19T09:04:02;5.67;;;5.27;;
8113;SDS011;4099;52.684;9.918;2022-08-19T09:09:05;5.10;;;4.70;;
8113;SDS011;4099;52.684;9.918;2022-08-19T09:14:19;5.90;;;5.30;;
8113;SDS011;4099;52.684;9.918;2022-08-19T09:19:36;5.87;;;5.13;;
8113;SDS011;4099;52.684;9.918;2022-08-19T09:24:50;5.70;;;5.20;;
8113;SDS011;4099;52.684;9.918;2022-08-19T09:29:54;6.73;;;4.70;;
8113;SDS011;4099;52.684;9.918;2022-08-19T09:34:56;5.87;;;5.37;;
8113;SDS011;4099;52.684;9.918;2022-08-19T09:40:03;5.80;;;5.27;;
8113;SDS011;4099;52.684;9.918;2022-08-19T09:45:08;6.00;;;5.40;;
8113;SDS011;4099;52.684;9.918;2022-08-19T09:50:11;5.40;;;4.90;;
8113;SDS011;4099;52.684;9.918;2022-08-19T09:55:13;5.53;;;5.03;;
8113;SDS011;4099;52.684;9.918;2022-08-19T10:00:17;5.70;;;5.20;;
8113;SDS011;4099;52.684;9.918;2022-08-19T10:05:20;5.77;;;5.13;;
8113;SDS011;4099;52.684;9.918;2022-08-19T10:10:40;5.30;;;4.80;;
8113;SDS011;4099;52.684;9.918;2022-08-19T10:15:44;5.93;;;5.37;;
8113;SDS011;4099;52.684;9.918;2022-08-19T10:20:46;5.40;;;4.90;;
8113;SDS011;4099;52.684;9.918;2022-08-19T10:25:50;5.20;;;4.80;;
8113;SDS011;4099;52.684;9.918;2022-08-19T10:30:54;5.37;;;4.87;;
8113;SDS011;4099;52.684;9.918;2022-08-19T10:35:58;5.00;;;4.60;;
8113;SDS011;4099;52.684;9.918;2022-08-19T10:41:07;5.47;;;5.00;;
8113;SDS011;4099;52.684;9.918;2022-08-19T10:46:13;5.50;;;5.03;;
8113;SDS011;4099;52.684;9.918;2022-08-19T10:51:16;6.57;;;4.90;;
8113;SDS011;4099;52.684;9.918;2022-08-19T10:56:36;5.20;;;4.70;;
8113;SDS011;4099;52.684;9.918;2022-08-19T11:01:54;5.73;;;5.23;;
8113;SDS011;4099;52.684;9.918;2022-08-19T11:07:01;5.40;;;4.90;;
8113;SDS011;4099;52.684;9.918;2022-08-19T11:12:03;5.70;;;5.20;;
8113;SDS011;4099;52.684;9.918;2022-08-19T11:17:07;6.67;;;4.90;;
8113;SDS011;4099;52.684;9.918;2022-08-19T11:22:09;6.00;;;5.50;;
8113;SDS011;4099;52.684;9.918;2022-08-19T11:27:11;5.17;;;4.77;;
8113;SDS011;4099;52.684;9.918;2022-08-19T11:32:14;5.10;;;4.70;;
8113;SDS011;4099;52.684;9.918;2022-08-19T11:37:16;5.10;;;4.70;;
8113;SDS011;4099;52.684;9.918;2022-08-19T11:42:17;4.77;;;4.47;;
8113;SDS011;4099;52.684;9.918;2022-08-19T11:47:38;4.87;;;4.47;;
8113;SDS011;4099;52.684;9.918;2022-08-19T11:52:40;5.30;;;4.83;;
8113;SDS011;4099;52.684;9.918;2022-08-19T11:57:43;5.57;;;5.17;;
8113;SDS011;4099;52.684;9.918;2022-08-19T12:02:48;5.67;;;5.17;;
8113;SDS011;4099;52.684;9.918;2022-08-19T12:07:49;5.20;;;4.80;;
8113;SDS011;4099;52.684;9.918;2022-08-19T12:12:51;6.60;;;6.10;;
8113;SDS011;4099;52.684;9.918;2022-08-19T12:17:54;5.90;;;5.40;;
8113;SDS011;4099;52.684;9.918;2022-08-19T12:22:58;5.73;;;5.33;;
8113;SDS011;4099;52.684;9.918;2022-08-19T12:27:59;6.10;;;5.50;;
8113;SDS011;4099;52.684;9.918;2022-08-19T12:33:03;6.13;;;5.63;;
8113;SDS011;4099;52.684;9.918;2022-08-19T12:38:04;5.50;;;5.10;;
8113;SDS011;4099;52.684;9.918;2022-08-19T12:43:06;5.37;;;4.97;;
8113;SDS011;4099;52.684;9.918;2022-08-19T12:48:10;6.10;;;5.60;;
8113;SDS011;4099;52.684;9.918;2022-08-19T12:53:12;5.45;;;4.93;;
8113;SDS011;4099;52.684;9.918;2022-08-19T12:58:15;5.88;;;5.38;;
8113;SDS011;4099;52.684;9.918;2022-08-19T13:03:18;5.90;;;5.38;;
8113;SDS011;4099;52.684;9.918;2022-08-19T13:08:20;5.20;;;4.80;;
8113;SDS011;4099;52.684;9.918;2022-08-19T13:13:22;5.30;;;4.90;;
8113;SDS011;4099;52.684;9.918;2022-08-19T13:18:27;5.15;;;4.75;;
8113;SDS011;4099;52.684;9.918;2022-08-19T13:23:29;5.30;;;4.90;;
8113;SDS011;4099;52.684;9.918;2022-08-19T13:28:31;4.93;;;4.57;;
8113;SDS011;4099;52.684;9.918;2022-08-19T13:33:48;5.23;;;4.83;;
8113;SDS011;4099;52.684;9.918;2022-08-19T13:38:50;5.07;;;4.68;;
8113;SDS011;4099;52.684;9.918;2022-08-19T13:43:51;4.40;;;4.10;;
8113;SDS011;4099;52.684;9.918;2022-08-19T13:48:55;4.93;;;4.40;;
8113;SDS011;4099;52.684;9.918;2022-08-19T13:53:57;4.10;;;3.80;;
8113;SDS011;4099;52.684;9.918;2022-08-19T13:58:59;4.40;;;4.00;;
8113;SDS011;4099;52.684;9.918;2022-08-19T14:04:02;4.10;;;3.80;;
8113;SDS011;4099;52.684;9.918;2022-08-19T14:09:05;3.97;;;3.78;;
8113;SDS011;4099;52.684;9.918;2022-08-19T14:14:07;4.28;;;3.97;;
8113;SDS011;4099;52.684;9.918;2022-08-19T14:19:10;4.47;;;4.18;;
8113;SDS011;4099;52.684;9.918;2022-08-19T14:24:12;5.10;;;4.70;;
8113;SDS011;4099;52.684;9.918;2022-08-19T14:29:14;5.20;;;4.80;;
8113;SDS011;4099;52.684;9.918;2022-08-19T14:34:18;4.72;;;4.43;;
8113;SDS011;4099;52.684;9.918;2022-08-19T14:39:19;3.75;;;3.55;;
8113;SDS011;4099;52.684;9.918;2022-08-19T14:44:21;4.05;;;3.75;;
8113;SDS011;4099;52.684;9.918;2022-08-19T14:49:24;3.95;;;3.65;;
8113;SDS011;4099;52.684;9.918;2022-08-19T14:54:27;4.38;;;4.03;;
8113;SDS011;4099;52.684;9.918;2022-08-19T14:59:29;4.10;;;3.70;;
8113;SDS011;4099;52.684;9.918;2022-08-19T15:04:36;3.92;;;3.63;;
8113;SDS011;4099;52.684;9.918;2022-08-19T15:09:39;4.38;;;3.97;;
8113;SDS011;4099;52.684;9.918;2022-08-19T15:14:42;4.32;;;4.03;;
8113;SDS011;4099;52.684;9.918;2022-08-19T15:19:45;4.40;;;4.03;;
8113;SDS011;4099;52.684;9.918;2022-08-19T15:24:47;4.10;;;3.80;;
8113;SDS011;4099;52.684;9.918;2022-08-19T15:29:49;4.53;;;4.13;;
8113;SDS011;4099;52.684;9.918;2022-08-19T15:34:53;4.07;;;3.67;;
8113;SDS011;4099;52.684;9.918;2022-08-19T15:39:55;3.47;;;3.27;;
8113;SDS011;4099;52.684;9.918;2022-08-19T15:44:58;3.63;;;3.33;;
8113;SDS011;4099;52.684;9.918;2022-08-19T15:50:05;4.10;;;3.70;;
8113;SDS011;4099;52.684;9.918;2022-08-19T15:55:08;4.30;;;3.60;;
8113;SDS011;4099;52.684;9.918;2022-08-19T16:00:11;3.60;;;3.30;;
8113;SDS011;4099;52.684;9.918;2022-08-19T16:05:32;3.70;;;3.40;;
8113;SDS011;4099;52.684;9.918;2022-08-19T16:10:52;3.80;;;3.60;;
8113;SDS011;4099;52.684;9.918;2022-08-19T16:15:55;4.30;;;3.90;;
8113;SDS011;4099;52.684;9.918;2022-08-19T16:20:59;3.50;;;3.30;;
8113;SDS011;4099;52.684;9.918;2022-08-19T16:26:01;3.50;;;3.30;;
8113;SDS011;4099;52.684;9.918;2022-08-19T16:31:03;3.90;;;3.60;;
8113;SDS011;4099;52.684;9.918;2022-08-19T16:36:08;3.20;;;3.00;;
8113;SDS011;4099;52.684;9.918;2022-08-19T16:41:10;4.10;;;3.80;;
8113;SDS011;4099;52.684;9.918;2022-08-19T16:46:13;3.50;;;3.20;;
8113;SDS011;4099;52.684;9.918;2022-08-19T16:51:17;3.80;;;3.50;;
8113;SDS011;4099;52.684;9.918;2022-08-19T16:56:21;3.50;;;3.30;;
8113;SDS011;4099;52.684;9.918;2022-08-19T17:01:24;3.73;;;3.43;;
8113;SDS011;4099;52.684;9.918;2022-08-19T17:06:29;4.30;;;3.90;;
8113;SDS011;4099;52.684;9.918;2022-08-19T17:11:32;4.50;;;4.20;;
8113;SDS011;4099;52.684;9.918;2022-08-19T17:16:35;3.87;;;3.40;;
8113;SDS011;4099;52.684;9.918;2022-08-19T17:21:38;3.33;;;3.10;;
8113;SDS011;4099;52.684;9.918;2022-08-19T17:26:41;3.00;;;2.80;;
8113;SDS011;4099;52.684;9.918;2022-08-19T17:31:43;3.37;;;3.17;;
8113;SDS011;4099;52.684;9.918;2022-08-19T17:36:47;3.73;;;3.10;;
8113;SDS011;4099;52.684;9.918;2022-08-19T17:41:49;4.37;;;3.30;;
8113;SDS011;4099;52.684;9.918;2022-08-19T17:46:52;3.40;;;3.20;;
8113;SDS011;4099;52.684;9.918;2022-08-19T17:51:56;3.63;;;3.33;;
8113;SDS011;4099;52.684;9.918;2022-08-19T17:56:59;3.30;;;3.00;;
8113;SDS011;4099;52.684;9.918;2022-08-19T18:02:02;3.53;;;3.33;;
8113;SDS011;4099;52.684;9.918;2022-08-19T18:07:06;4.00;;;3.70;;
8113;SDS011;4099;52.684;9.918;2022-08-19T18:12:09;3.63;;;3.30;;
8113;SDS011;4099;52.684;9.918;2022-08-19T18:17:15;4.17;;;3.87;;
8113;SDS011;4099;52.684;9.918;2022-08-19T18:22:24;4.40;;;4.00;;
8113;SDS011;4099;52.684;9.918;2022-08-19T18:27:28;3.90;;;3.60;;
8113;SDS011;4099;52.684;9.918;2022-08-19T18:32:31;3.50;;;3.30;;
8113;SDS011;4099;52.684;9.918;2022-08-19T18:37:35;4.27;;;3.90;;
8113;SDS011;4099;52.684;9.918;2022-08-19T18:42:40;3.80;;;3.50;;
8113;SDS011;4099;52.684;9.918;2022-08-19T18:48:01;4.20;;;3.80;;
8113;SDS011;4099;52.684;9.918;2022-08-19T18:53:22;3.80;;;3.40;;
8113;SDS011;4099;52.684;9.918;2022-08-19T18:58:25;3.90;;;3.60;;
8113;SDS011;4099;52.684;9.918;2022-08-19T19:03:31;3.60;;;3.40;;
8113;SDS011;4099;52.684;9.918;2022-08-19T19:08:34;4.00;;;3.70;;
8113;SDS011;4099;52.684;9.918;2022-08-19T19:13:38;3.63;;;3.43;;
8113;SDS011;4099;52.684;9.918;2022-08-19T19:18:40;4.40;;;4.00;;
8113;SDS011;4099;52.684;9.918;2022-08-19T19:23:45;4.17;;;3.70;;
8113;SDS011;4099;52.684;9.918;2022-08-19T19:28:47;4.60;;;4.20;;
8113;SDS011;4099;52.684;9.918;2022-08-19T19:33:52;4.43;;;4.03;;
8113;SDS011;4099;52.684;9.918;2022-08-19T19:38:57;4.17;;;3.83;;
8113;SDS011;4099;52.684;9.918;2022-08-19T19:43:59;4.40;;;4.10;;
8113;SDS011;4099;52.684;9.918;2022-08-19T19:49:02;4.43;;;4.03;;
8113;SDS011;4099;52.684;9.918;2022-08-19T19:54:07;4.40;;;4.10;;
8113;SDS011;4099;52.684;9.918;2022-08-19T19:59:16;4.63;;;4.33;;
8113;SDS011;4099;52.684;9.918;2022-08-19T20:04:18;4.70;;;4.30;;
8113;SDS011;4099;52.684;9.918;2022-08-19T20:09:22;4.97;;;4.57;;
8113;SDS011;4099;52.684;9.918;2022-08-19T20:14:26;4.77;;;4.37;;
8113;SDS011;4099;52.684;9.918;2022-08-19T20:19:31;4.93;;;4.63;;
8113;SDS011;4099;52.684;9.918;2022-08-19T20:24:37;4.97;;;4.57;;
8113;SDS011;4099;52.684;9.918;2022-08-19T20:29:41;6.20;;;5.40;;
8113;SDS011;4099;52.684;9.918;2022-08-19T20:34:43;5.57;;;5.17;;
8113;SDS011;4099;52.684;9.918;2022-08-19T20:39:49;5.13;;;4.73;;
8113;SDS011;4099;52.684;9.918;2022-08-19T20:44:52;5.57;;;5.17;;
8113;SDS011;4099;52.684;9.918;2022-08-19T20:49:54;5.87;;;5.37;;
8113;SDS011;4099;52.684;9.918;2022-08-19T20:54:59;5.77;;;5.37;;
8113;SDS011;4099;52.684;9.918;2022-08-19T21:00:02;5.53;;;5.13;;
8113;SDS011;4099;52.684;9.918;2022-08-19T21:05:08;5.33;;;4.93;;
8113;SDS011;4099;52.684;9.918;2022-08-19T21:10:12;6.50;;;5.90;;
8113;SDS011;4099;52.684;9.918;2022-08-19T21:15:14;5.90;;;5.50;;
8113;SDS011;4099;52.684;9.918;2022-08-19T21:20:17;6.23;;;5.73;;
8113;SDS011;4099;52.684;9.918;2022-08-19T21:25:21;6.63;;;6.07;;
8113;SDS011;4099;52.684;9.918;2022-08-19T21:30:23;6.87;;;6.37;;
8113;SDS011;4099;52.684;9.918;2022-08-19T21:35:26;7.57;;;6.90;;
8113;SDS011;4099;52.684;9.918;2022-08-19T21:40:30;6.40;;;5.90;;
8113;SDS011;4099;52.684;9.918;2022-08-19T21:45:32;6.63;;;6.13;;
8113;SDS011;4099;52.684;9.918;2022-08-19T21:50:37;7.30;;;6.70;;
8113;SDS011;4099;52.684;9.918;2022-08-19T21:55:41;7.07;;;6.43;;
8113;SDS011;4099;52.684;9.918;2022-08-19T22:00:43;7.07;;;6.47;;
8113;SDS011;4099;52.684;9.918;2022-08-19T22:05:47;7.07;;;6.37;;
8113;SDS011;4099;52.684;9.918;2022-08-19T22:10:51;6.53;;;6.03;;
8113;SDS011;4099;52.684;9.918;2022-08-19T22:15:54;6.50;;;6.00;;
8113;SDS011;4099;52.684;9.918;2022-08-19T22:20:56;6.60;;;6.10;;
8113;SDS011;4099;52.684;9.918;2022-08-19T22:26:00;7.37;;;6.77;;
8113;SDS011;4099;52.684;9.918;2022-08-19T22:31:02;7.87;;;7.17;;
8113;SDS011;4099;52.684;9.918;2022-08-19T22:36:05;7.30;;;6.70;;
8113;SDS011;4099;52.684;9.918;2022-08-19T22:41:09;7.60;;;7.00;;
8113;SDS011;4099;52.684;9.918;2022-08-19T22:46:11;7.30;;;6.70;;
8113;SDS011;4099;52.684;9.918;2022-08-19T22:51:17;7.43;;;6.93;;
8113;SDS011;4099;52.684;9.918;2022-08-19T22:56:38;7.93;;;7.20;;
8113;SDS011;4099;52.684;9.918;2022-08-19T23:01:42;8.30;;;7.60;;
8113;SDS011;4099;52.684;9.918;2022-08-19T23:06:45;9.00;;;8.20;;
8113;SDS011;4099;52.684;9.918;2022-08-19T23:11:49;9.07;;;8.33;;
8113;SDS011;4099;52.684;9.918;2022-08-19T23:16:51;7.50;;;6.80;;
8113;SDS011;4099;52.684;9.918;2022-08-19T23:21:53;8.57;;;7.57;;
8113;SDS011;4099;52.684;9.918;2022-08-19T23:26:57;8.30;;;7.50;;
8113;SDS011;4099;52.684;9.918;2022-08-19T23:32:17;7.47;;;6.87;;
8113;SDS011;4099;52.684;9.918;2022-08-19T23:37:20;7.63;;;7.03;;
8113;SDS011;4099;52.684;9.918;2022-08-19T23:42:25;7.47;;;6.87;;
8113;SDS011;4099;52.684;9.918;2022-08-19T23:47:27;8.93;;;8.13;;
8113;SDS011;4099;52.684;9.918;2022-08-19T23:52:30;9.30;;;8.60;;
8113;SDS011;4099;52.684;9.918;2022-08-19T23:57:34;9.20;;;8.40;;
